Latest Weather Observations for Horn Island

IDQ60801

Issued at 5:02 pm EST Tuesday 23 May 2017 (issued every 30 minutes, with the page automatically refreshed every 10 minutes)

About weather observations | Map of weather stations | Latest weather observations for QLD | Other Formats
Station Details ID: 027058 Name: HORN ISLAND Lat: -10.58 Lon: 142.29 Height: 4.0 m
Data from the previous 72 hours. | See also: Recent months at Horn Island
Date/Time
EST
Temp
°C
App
Temp
°C
Dew
Point
°C
Rel
Hum
%
Delta-T
°C
Wind Press
QNH
hPa
Press
MSL
hPa
Rain since
9am
mm
Dir  Spd
km/h
Gust
km/h
Spd
kts
Gust
kts
23/05:00pm 28.4 28.1 22.6 71 3.9 SE 28 39 15 21 1009.6 - 0.0
23/04:30pm 28.9 28.8 22.2 67 4.5 ESE 26 37 14 20 1009.6 - 0.0
23/04:00pm 28.7 29.2 22.7 70 4.1 ESE 24 39 13 21 1009.7 - 0.0
23/03:30pm 29.1 29.0 22.3 66 4.6 ESE 26 35 14 19 1009.6 - 0.0
23/03:00pm 30.1 30.3 22.0 62 5.5 E 24 32 13 17 1009.6 1009.6 0.0
23/02:30pm 30.2 30.4 22.1 62 5.5 ESE 24 35 13 19 1009.6 - 0.0
23/02:00pm 29.6 29.4 22.1 64 5.1 ESE 26 35 14 19 1009.9 - 0.0
23/01:30pm 29.7 29.2 21.4 61 5.6 ESE 26 37 14 20 1010.2 - 0.0
23/01:00pm 29.9 29.6 21.8 62 5.5 ESE 26 35 14 19 1010.5 - 0.0
23/12:30pm 29.8 29.0 22.3 64 5.1 ESE 30 43 16 23 1011.1 - 0.0
23/12:00pm 30.0 - - - - ESE 32 41 17 22 1011.5 1011.5 0.0
23/11:30am 29.6 - - - - ESE 30 43 16 23 1011.8 - 0.0
23/11:14am 29.2 27.4 20.4 59 5.8 SE 30 48 16 26 1012.0 - 0.0
23/11:03am 29.2 27.1 20.6 59 5.7 SE 32 43 17 23 1012.1 - 0.0
23/11:00am 28.9 26.6 20.1 59 5.8 SE 32 43 17 23 1012.3 - 0.0
23/10:43am 29.1 27.0 20.5 59 5.7 ESE 32 44 17 24 1012.4 - 0.0
23/10:00am 28.7 26.9 20.4 60 5.5 SE 30 43 16 23 1012.6 - 0.0
23/09:30am 28.4 26.2 19.6 59 5.7 SE 30 41 16 22 1012.8 - 0.0
23/09:00am 27.6 25.3 17.7 54 6.3 SE 26 37 14 20 1013.0 1013.0 0.2
23/08:30am 27.5 25.1 16.5 51 6.8 ESE 24 35 13 19 1012.7 - 0.2
23/08:00am 27.1 23.8 15.1 47 7.3 ESE 26 35 14 19 1012.7 - 0.2
23/07:30am 26.8 24.0 14.2 46 7.5 SE 22 33 12 18 1012.3 - 0.2
23/07:00am 26.5 23.1 13.6 45 7.6 SE 24 33 13 18 1011.8 - 0.2
23/06:30am 26.4 22.5 13.2 44 7.7 SE 26 43 14 23 1011.4 - 0.2
23/06:00am 26.3 22.1 13.4 45 7.6 ESE 28 39 15 21 1011.2 1011.2 0.2
23/05:30am 26.5 22.7 13.6 45 7.6 SE 26 39 14 21 1010.7 - 0.2
23/05:00am 26.4 22.9 13.5 45 7.6 SE 24 35 13 19 1010.5 - 0.2
23/04:30am 26.6 23.6 13.7 45 7.6 SE 22 32 12 17 1010.6 - 0.2
23/04:00am 26.5 23.5 13.6 45 7.6 SE 22 30 12 16 1010.5 - 0.2
23/03:30am 26.5 23.5 13.6 45 7.6 SE 22 32 12 17 1010.6 - 0.2
23/03:00am 26.5 23.2 13.9 45 7.5 SE 24 35 13 19 1010.7 1010.7 0.2
23/02:30am 26.5 23.2 13.9 45 7.5 SE 24 33 13 18 1010.8 - 0.2
23/02:00am 26.7 22.7 14.1 46 7.5 ESE 28 37 15 20 1011.2 - 0.2
23/01:30am 26.5 23.2 13.9 45 7.5 ESE 24 33 13 18 1011.5 - 0.2
23/01:00am 26.8 23.6 14.2 46 7.5 SE 24 39 13 21 1011.9 - 0.2
23/12:30am 26.8 24.0 14.2 46 7.5 ESE 22 35 12 19 1012.2 - 0.2
23/12:00am 26.6 23.7 14.0 46 7.5 SE 22 33 12 18 1012.3 1012.3 0.2
 
Date/Time
EST
Temp
°C
App
Temp
°C
Dew
Point
°C
Rel
Hum
%
Delta-T
°C
Wind Press
QNH
hPa
Press
MSL
hPa
Rain since
9am
mm
Dir  Spd
km/h
Gust
km/h
Spd
kts
Gust
kts
22/11:30pm 26.7 22.8 14.5 47 7.3 ESE 28 41 15 22 1012.6 - 0.2
22/11:00pm 26.8 22.5 14.5 46 7.4 ESE 30 41 16 22 1012.7 - 0.2
22/10:30pm 26.9 22.3 14.6 46 7.4 ESE 32 41 17 22 1012.7 - 0.2
22/10:00pm 26.8 22.5 14.5 46 7.4 SE 30 41 16 22 1012.3 - 0.2
22/09:30pm 26.9 22.3 14.6 46 7.4 ESE 32 43 17 23 1012.2 - 0.2
22/09:00pm 26.9 22.7 14.6 46 7.4 SE 30 39 16 21 1011.9 1011.9 0.2
22/08:30pm 26.8 23.8 14.9 48 7.2 ESE 24 35 13 19 1011.9 - 0.2
22/08:00pm 26.9 23.2 15.0 48 7.2 ESE 28 39 15 21 1011.4 - 0.2
22/07:30pm 26.8 23.1 14.9 48 7.2 SE 28 41 15 22 1010.8 - 0.2
22/07:00pm 27.0 23.3 15.1 48 7.2 SE 28 48 15 26 1010.4 - 0.2
22/06:30pm 26.9 23.3 15.3 49 7.0 SE 28 41 15 22 1010.1 - 0.2
22/06:00pm 27.3 23.1 15.6 48 7.2 ESE 32 43 17 23 1009.7 1009.7 0.2
22/05:30pm 27.5 23.6 16.5 51 6.8 ESE 32 44 17 24 1009.5 - 0.2
22/05:00pm 28.0 25.2 19.0 58 5.8 ESE 32 44 17 24 1009.7 - 0.2
22/04:30pm 28.5 25.1 19.1 56 6.1 ESE 35 50 19 27 1009.8 - 0.2
22/04:00pm 28.8 26.3 19.7 58 5.9 ESE 32 44 17 24 1009.6 - 0.2
22/03:30pm 28.6 26.4 19.5 58 5.9 ESE 30 50 16 27 1009.6 - 0.2
22/03:00pm 28.7 26.0 19.6 58 5.9 ESE 33 43 18 23 1009.6 1009.6 0.2
22/02:30pm 29.8 27.5 20.6 57 6.1 SE 33 46 18 25 1009.7 - 0.2
22/02:00pm 30.1 27.2 20.9 57 6.1 ESE 37 52 20 28 1010.0 - 0.2
22/01:30pm 29.7 27.9 20.3 57 6.2 SE 30 41 16 22 1010.6 - 0.2
22/01:00pm 30.7 29.3 22.3 61 5.7 ESE 33 48 18 26 1010.8 - 0.2
22/12:30pm 29.9 27.6 21.3 60 5.8 ESE 35 48 19 26 1011.2 - 0.2
22/12:02pm 29.7 27.3 21.1 60 5.7 ESE 35 54 19 29 1011.8 - 0.2
22/12:00pm 29.5 26.6 20.9 60 5.7 ESE 37 54 20 29 1011.8 1011.8 0.2
22/11:37am 29.6 27.9 21.3 61 5.6 SE 32 50 17 27 1012.2 - 0.2
22/11:30am 29.4 27.8 20.8 60 5.7 SE 30 43 16 23 1012.3 - 0.2
22/11:00am 29.2 26.6 20.6 59 5.7 SE 35 52 19 28 1012.4 - 0.2
22/10:32am 28.2 25.8 20.0 61 5.4 SE 32 50 17 27 1012.6 - 0.2
22/10:30am 28.1 25.4 19.3 58 5.7 SE 32 43 17 23 1012.5 - 0.2
22/10:00am 27.4 24.7 18.4 58 5.7 SE 30 48 16 26 1012.6 - 0.2
22/09:59am 27.4 24.9 18.1 57 5.9 SE 28 48 15 26 1012.6 - 0.2
22/09:48am 26.4 23.6 17.2 57 5.7 SE 28 46 15 25 1012.6 - 0.2
22/09:36am 26.5 23.1 15.8 51 6.5 ESE 28 37 15 20 1012.5 - 0.0
22/09:30am 27.6 25.0 16.9 52 6.7 SE 26 39 14 21 1012.4 - 0.0
22/09:00am 27.4 25.4 16.4 51 6.8 SE 22 32 12 17 1012.2 1012.2 0.6
22/08:38am 27.1 24.0 15.5 49 7.1 SE 26 33 14 18 1011.9 - 0.6
22/08:30am 26.9 24.2 14.6 46 7.4 SE 22 33 12 18 1011.8 - 0.6
22/08:00am 26.4 23.1 13.9 46 7.4 SSE 24 32 13 17 1011.5 - 0.6
22/07:30am 26.5 23.6 13.9 45 7.5 SSE 22 30 12 16 1011.0 - 0.6
22/07:00am 26.4 22.2 13.5 45 7.6 SE 28 43 15 23 1010.8 - 0.6
22/06:52am 26.4 22.1 13.2 44 7.7 SE 28 43 15 23 1010.7 - 0.6
22/06:30am 26.0 23.6 12.8 44 7.7 SE 17 24 9 13 1010.5 - 0.6
22/06:29am 26.0 23.6 12.8 44 7.7 SE 17 22 9 12 1010.4 - 0.6
22/06:00am 26.0 23.8 13.2 45 7.5 SSE 17 30 9 16 1010.1 1010.1 0.6
22/05:49am 26.0 23.2 13.2 45 7.5 SSE 20 26 11 14 1010.0 - 0.6
22/05:30am 26.0 23.4 13.2 45 7.5 SSE 19 30 10 16 1009.9 - 0.6
22/05:18am 26.0 22.8 13.2 45 7.5 SE 22 32 12 17 1009.8 - 0.6
22/05:00am 25.8 22.9 13.0 45 7.5 SE 20 33 11 18 1009.8 - 0.6
22/04:41am 25.8 23.1 13.0 45 7.5 SSE 19 30 10 16 1009.7 - 0.6
22/04:35am 26.1 23.5 13.2 44 7.5 SSE 19 26 10 14 1009.6 - 0.4
22/04:30am 26.0 23.2 13.2 45 7.5 SSE 20 26 11 14 1009.5 - 0.4
22/04:00am 26.2 23.4 13.3 45 7.6 SSE 20 32 11 17 1009.5 - 0.4
22/03:39am 26.1 23.3 13.2 44 7.5 SSE 20 30 11 16 1009.5 - 0.4
22/03:30am 26.0 22.8 13.2 45 7.5 SSE 22 32 12 17 1009.4 - 0.4
22/03:15am 26.0 22.5 13.5 46 7.3 SSE 24 35 13 19 1009.4 - 0.4
22/03:00am 26.1 23.6 13.6 46 7.4 SSE 19 28 10 15 1009.5 1009.5 0.4
22/02:30am 26.2 22.4 13.7 46 7.4 SE 26 35 14 19 1009.6 - 0.4
22/02:25am 26.2 22.8 13.7 46 7.4 SE 24 35 13 19 1009.7 - 0.4
22/02:21am 26.2 23.2 13.7 46 7.4 SE 22 35 12 19 1009.7 - 0.4
22/02:14am 26.1 22.7 13.6 46 7.4 SE 24 37 13 20 1009.7 - 0.4
22/02:04am 26.2 22.8 13.7 46 7.4 SE 24 35 13 19 1009.8 - 0.4
22/02:00am 26.9 24.1 14.3 46 7.5 SE 22 33 12 18 1009.7 - 0.4
22/01:30am 26.8 24.3 14.2 46 7.5 SE 20 30 11 16 1009.8 - 0.4
22/01:00am 26.6 23.7 14.0 46 7.5 SE 22 30 12 16 1010.0 - 0.4
22/12:30am 26.7 24.2 14.1 46 7.5 SE 20 33 11 18 1010.0 - 0.4
22/12:00am 26.7 24.3 14.5 47 7.3 SSE 20 28 11 15 1010.5 1010.5 0.4
 
Date/Time
EST
Temp
°C
App
Temp
°C
Dew
Point
°C
Rel
Hum
%
Delta-T
°C
Wind Press
QNH
hPa
Press
MSL
hPa
Rain since
9am
mm
Dir  Spd
km/h
Gust
km/h
Spd
kts
Gust
kts
21/11:30pm 26.7 24.0 14.5 47 7.3 SE 22 30 12 16 1010.6 - 0.4
21/11:00pm 26.7 23.6 14.5 47 7.3 SE 24 35 13 19 1010.7 - 0.4
21/10:30pm 26.6 24.2 14.4 47 7.3 SE 20 30 11 16 1010.6 - 0.4
21/10:00pm 26.4 23.9 14.2 47 7.3 SE 20 32 11 17 1010.7 - 0.2
21/09:30pm 26.3 24.0 14.1 47 7.2 SE 19 28 10 15 1010.5 - 0.2
21/09:03pm 26.3 24.1 14.4 48 7.1 SE 19 24 10 13 1010.4 - 0.2
21/09:00pm 26.3 23.9 14.4 48 7.1 SE 20 30 11 16 1010.5 1010.5 0.2
21/08:44pm 26.4 24.0 14.5 48 7.1 SE 20 33 11 18 1010.4 - 0.2
21/08:30pm 27.0 24.9 15.1 48 7.2 SE 20 32 11 17 1010.1 - 0.2
21/08:00pm 27.1 24.6 15.1 47 7.3 SE 22 32 12 17 1009.9 - 0.2
21/07:30pm 27.0 24.5 15.1 48 7.2 SE 22 30 12 16 1009.5 - 0.2
21/07:00pm 26.4 23.3 14.5 48 7.1 E 24 33 13 18 1009.3 - 0.2
21/06:30pm 27.5 24.5 15.8 48 7.2 SE 26 37 14 20 1008.9 - 0.2
21/06:00pm 27.6 24.7 16.2 49 7.0 SE 26 35 14 19 1008.5 1008.5 0.2
21/05:30pm 28.0 25.9 17.2 52 6.8 ESE 24 35 13 19 1008.3 - 0.2
21/05:00pm 27.9 25.3 17.7 53 6.4 ESE 28 39 15 21 1008.1 - 0.2
21/04:30pm 28.1 26.3 18.8 57 6.0 ESE 26 35 14 19 1008.0 - 0.2
21/04:00pm 28.0 26.7 19.0 58 5.8 ESE 24 33 13 18 1008.1 - 0.2
21/03:30pm 27.7 25.5 18.7 58 5.8 ESE 28 35 15 19 1007.9 - 0.2
21/03:14pm 27.6 25.0 18.6 58 5.8 ESE 30 39 16 21 1008.1 - 0.2
21/03:00pm 26.7 23.2 17.5 57 5.8 ESE 32 44 17 24 1008.3 1008.3 0.2
21/02:49pm 27.0 23.5 17.5 56 6.0 ESE 32 46 17 25 1008.3 - 0.2
21/02:30pm 29.9 28.2 20.5 57 6.2 ESE 30 41 16 22 1008.2 - 0.2
21/02:00pm 29.8 28.1 20.6 57 6.1 ESE 30 43 16 23 1008.6 - 0.2
21/01:30pm 29.3 27.0 20.2 58 6.0 ESE 32 41 17 22 1008.9 - 0.2
21/01:16pm 28.9 26.7 19.5 57 6.1 ESE 30 39 16 21 1009.2 - 0.2
21/01:00pm 28.4 25.4 19.9 60 5.6 ESE 35 46 19 25 1009.5 - 0.2
21/12:35pm 28.9 26.8 20.6 61 5.5 ESE 32 44 17 24 1009.7 - 0.2
21/12:30pm 28.5 26.0 20.2 60 5.5 ESE 33 46 18 25 1009.7 - 0.2
21/12:12pm 28.8 27.0 20.3 60 5.6 ESE 30 39 16 21 1010.0 - 0.2
21/12:00pm 27.3 24.8 18.9 60 5.4 ESE 30 48 16 26 1010.2 1010.2 0.2
21/11:59am 27.0 24.4 18.6 60 5.4 ESE 30 48 16 26 1010.2 - 0.2
21/11:50am 27.4 24.0 18.9 59 5.5 ESE 35 50 19 27 1010.3 - 0.2
21/11:30am 29.6 27.7 21.0 60 5.7 ESE 32 41 17 22 1010.4 - 0.2
21/11:03am 29.2 27.5 20.6 59 5.7 ESE 30 50 16 27 1010.7 - 0.0
21/11:00am 29.4 27.8 20.8 60 5.7 ESE 30 39 16 21 1010.7 - 0.0
21/10:30am 28.7 26.5 20.4 60 5.5 ESE 32 41 17 22 1011.0 - 0.0
21/10:00am 29.0 27.6 21.2 62 5.2 ESE 30 41 16 22 1011.1 - 0.0
21/09:30am 27.4 24.0 16.7 52 6.7 ESE 30 44 16 24 1011.3 - 0.0
21/09:00am 27.2 25.0 15.9 50 6.9 ESE 22 30 12 16 1011.2 1011.2 1.2
21/08:54am 26.9 24.5 15.3 49 7.0 ESE 22 30 12 16 1011.1 - 1.2
21/08:33am 26.4 22.3 13.9 46 7.4 ESE 28 35 15 19 1010.9 - 1.2
21/08:30am 26.2 22.4 13.7 46 7.4 ESE 26 35 14 19 1010.8 - 1.2
21/08:24am 26.3 22.6 13.8 46 7.4 ESE 26 35 14 19 1010.8 - 1.2
21/08:21am 26.3 22.4 13.4 45 7.6 E 26 35 14 19 1010.7 - 1.2
21/08:00am 26.6 24.0 13.7 45 7.6 ESE 20 37 11 20 1010.5 - 1.2
21/07:51am 26.3 23.9 13.8 46 7.4 ESE 19 28 10 15 1010.4 - 1.2
21/07:30am 26.0 21.7 13.2 45 7.5 E 28 33 15 18 1010.2 - 0.8
21/07:00am 26.3 24.1 13.4 45 7.6 SE 17 20 9 11 1009.7 - 0.6
21/06:30am 26.2 23.5 13.0 44 7.7 SE 19 30 10 16 1009.4 - 0.6
21/06:03am 25.9 23.6 13.1 45 7.5 SE 17 22 9 12 1009.0 - 0.6
21/06:00am 25.8 23.5 13.0 45 7.5 SE 17 22 9 12 1009.1 1009.1 0.2
21/05:54am 25.8 23.1 13.0 45 7.5 SE 19 26 10 14 1009.1 - 0.2
21/05:37am 26.0 23.4 13.2 45 7.5 ESE 19 32 10 17 1009.1 - 0.2
21/05:36am 26.1 23.3 13.2 44 7.5 ESE 20 32 11 17 1009.1 - 0.2
21/05:30am 26.4 23.3 13.5 45 7.6 ESE 22 32 12 17 1008.9 - 0.2
21/05:00am 26.8 24.2 13.9 45 7.7 ESE 20 39 11 21 1008.8 - 0.2
21/04:30am 26.6 24.2 13.7 45 7.6 SE 19 28 10 15 1008.7 - 0.2
21/04:00am 26.5 24.4 13.6 45 7.6 SE 17 28 9 15 1008.7 - 0.2
21/03:30am 26.4 24.4 13.9 46 7.4 SE 17 24 9 13 1008.9 - 0.2
21/03:24am 26.3 24.3 13.8 46 7.4 SE 17 24 9 13 1008.9 - 0.2
21/03:08am 26.1 24.4 13.6 46 7.4 SE 15 20 8 11 1008.9 - 0.2
21/03:00am 26.0 24.3 13.5 46 7.4 SE 15 20 8 11 1008.9 1008.9 0.2
21/02:40am 26.1 24.8 13.6 46 7.4 SE 13 17 7 9 1009.0 - 0.2
21/02:30am 26.0 24.3 13.5 46 7.3 SE 15 24 8 13 1009.1 - 0.2
21/02:00am 26.0 22.9 13.5 46 7.3 SE 22 28 12 15 1009.4 - 0.2
21/01:36am 26.0 22.9 13.5 46 7.3 SE 22 30 12 16 1009.6 - 0.2
21/01:30am 26.0 23.3 13.5 46 7.3 SE 20 30 11 16 1009.7 - 0.2
21/01:26am 26.0 22.9 13.5 46 7.3 SE 22 30 12 16 1009.7 - 0.2
21/01:00am 26.6 23.3 14.0 46 7.5 ESE 24 32 13 17 1009.9 - 0.2
21/12:30am 26.6 24.3 14.0 46 7.5 SE 19 26 10 14 1010.0 - 0.2
21/12:00am 26.6 23.5 14.4 47 7.3 SE 24 33 13 18 1010.2 1010.2 0.2
 
Date/Time
EST
Temp
°C
App
Temp
°C
Dew
Point
°C
Rel
Hum
%
Delta-T
°C
Wind Press
QNH
hPa
Press
MSL
hPa
Rain since
9am
mm
Dir  Spd
km/h
Gust
km/h
Spd
kts
Gust
kts
20/11:30pm 27.1 24.5 14.8 47 7.4 ESE 22 33 12 18 1010.4 - 0.2
20/11:00pm 26.7 24.0 14.5 47 7.3 ESE 22 30 12 16 1010.7 - 0.2
20/10:30pm 26.8 24.1 14.5 46 7.4 ESE 22 30 12 16 1010.6 - 0.2
20/10:00pm 26.7 23.2 14.5 47 7.3 ESE 26 37 14 20 1010.4 - 0.2
20/09:30pm 26.8 23.3 14.5 46 7.4 ESE 26 39 14 21 1010.2 - 0.2
20/09:17pm 26.8 23.3 14.5 46 7.4 ESE 26 37 14 20 1010.1 - 0.2
20/09:02pm 26.9 23.8 14.6 46 7.4 SE 24 35 13 19 1010.2 - 0.2
20/09:00pm 26.9 23.8 14.6 46 7.4 SE 24 35 13 19 1010.1 1010.1 0.2
20/08:30pm 27.2 25.1 15.2 47 7.3 SE 20 32 11 17 1009.8 - 0.2
20/08:00pm 27.2 25.3 15.2 47 7.3 SE 19 26 10 14 1009.5 - 0.2
20/07:30pm 27.3 25.2 15.3 48 7.3 SE 20 30 11 16 1009.1 - 0.2
20/07:00pm 27.3 25.4 15.3 48 7.3 SE 19 30 10 16 1008.7 - 0.2
20/06:30pm 27.4 24.7 15.7 48 7.2 ESE 24 32 13 17 1008.3 - 0.2
20/06:00pm 27.8 25.7 16.1 49 7.2 SE 22 32 12 17 1008.1 1008.1 0.2
20/05:30pm 27.9 25.9 16.5 50 7.1 ESE 22 30 12 16 1008.0 - 0.2

Other Formats:

Comma delimited format used in spreadsheet applications
http://www.bom.gov.au/fwo/IDQ60801/IDQ60801.94174.axf

JavaScript Object Notation format (JSON) in row-major order
http://www.bom.gov.au/fwo/IDQ60801/IDQ60801.94174.json